UACK

Kokshetau

Kokshetau, Kazakhstan
TAF UACK 220800Z 2209/2218 20007MPS 9999 DRSN SCT015 BKN030 TEMPO 2209/2212 23008G13MPS
Issued Valid From Valid To
Jan-22 @ 08:00 UTC
(9 hours ago)
Jan-22 @ 09:00 UTC
(8 hours ago)
Jan-22 @ 18:00 UTC
(in an hour)
Jan-22 @ 09:00 to Jan-22 @ 18:00
TAF UACK 220800Z 2209/2218 20007MPS 9999 DRSN SCT015 BKN030
Wind Visibility Clouds Conditions
200° at 14 knots 10,000+ meters
  • Scattered at 1,500' AGL
  • Broken at 3,000' AGL
  • Low drifting
  • Snow
Expired Click to View Jan-22 @ 09:00 to Jan-22 @ 12:00
TEMPO 2209/2212 23008G13MPS
Wind
230° at 16 knots
 Gusting to 25 knots
TAF UACK 220800Z 2209/2218 20007MPS 9999 DRSN SCT015 BKN030 TEMPO 2209/2212 23008G13MPS
Issued Jan-22 @ 08:00 UTC
(9 hours ago)
Valid From Jan-22 @ 09:00 UTC
(8 hours ago)
Valid To Jan-22 @ 18:00 UTC
(in an hour)
Jan-22 @ 09:00 - Jan-22 @ 18:00
Wind Visibility
200° at 14 knots 10,000+ meters
Clouds
  • Scattered at 1,500' AGL
  • Broken at 3,000' AGL
Conditions
  • Low drifting
  • Snow
Jan-22 @ 09:00 - Jan-22 @ 12:00
Wind
230° at 16 knots
 Gusting to 25 knots